sensor_id;sensor_type;location;lat;lon;timestamp;P1;durP1;ratioP1;P2;durP2;ratioP2
8213;SDS011;4148;47.974;7.824;2023-03-31T00:01:28;9.40;;;4.20;;
8213;SDS011;4148;47.974;7.824;2023-03-31T00:04:00;6.60;;;3.70;;
8213;SDS011;4148;47.974;7.824;2023-03-31T00:06:30;6.73;;;4.10;;
8213;SDS011;4148;47.974;7.824;2023-03-31T00:09:03;6.67;;;4.07;;
8213;SDS011;4148;47.974;7.824;2023-03-31T00:11:31;7.73;;;4.07;;
8213;SDS011;4148;47.974;7.824;2023-03-31T00:13:59;7.17;;;3.70;;
8213;SDS011;4148;47.974;7.824;2023-03-31T00:16:27;7.63;;;4.23;;
8213;SDS011;4148;47.974;7.824;2023-03-31T00:18:55;7.63;;;4.13;;
8213;SDS011;4148;47.974;7.824;2023-03-31T00:21:24;8.73;;;4.60;;
8213;SDS011;4148;47.974;7.824;2023-03-31T00:23:54;9.07;;;4.40;;
8213;SDS011;4148;47.974;7.824;2023-03-31T00:26:23;8.70;;;4.00;;
8213;SDS011;4148;47.974;7.824;2023-03-31T00:28:51;7.37;;;4.27;;
8213;SDS011;4148;47.974;7.824;2023-03-31T00:31:20;6.23;;;3.73;;
8213;SDS011;4148;47.974;7.824;2023-03-31T00:33:49;9.07;;;4.63;;
8213;SDS011;4148;47.974;7.824;2023-03-31T00:36:17;11.53;;;5.00;;
8213;SDS011;4148;47.974;7.824;2023-03-31T00:38:54;5.60;;;3.80;;
8213;SDS011;4148;47.974;7.824;2023-03-31T00:41:24;15.07;;;4.97;;
8213;SDS011;4148;47.974;7.824;2023-03-31T00:44:00;9.53;;;5.30;;
8213;SDS011;4148;47.974;7.824;2023-03-31T00:46:33;8.20;;;3.90;;
8213;SDS011;4148;47.974;7.824;2023-03-31T00:49:07;8.10;;;4.50;;
8213;SDS011;4148;47.974;7.824;2023-03-31T00:51:41;8.53;;;4.40;;
8213;SDS011;4148;47.974;7.824;2023-03-31T00:54:11;11.80;;;4.10;;
8213;SDS011;4148;47.974;7.824;2023-03-31T00:56:41;7.87;;;4.90;;
8213;SDS011;4148;47.974;7.824;2023-03-31T00:59:13;11.70;;;4.60;;
8213;SDS011;4148;47.974;7.824;2023-03-31T01:01:43;9.07;;;4.27;;
8213;SDS011;4148;47.974;7.824;2023-03-31T01:04:15;11.27;;;4.67;;
8213;SDS011;4148;47.974;7.824;2023-03-31T01:06:51;8.63;;;5.00;;
8213;SDS011;4148;47.974;7.824;2023-03-31T01:09:28;6.33;;;4.77;;
8213;SDS011;4148;47.974;7.824;2023-03-31T01:12:00;10.43;;;5.13;;
8213;SDS011;4148;47.974;7.824;2023-03-31T01:14:30;7.70;;;4.57;;
8213;SDS011;4148;47.974;7.824;2023-03-31T01:16:59;7.20;;;4.77;;
8213;SDS011;4148;47.974;7.824;2023-03-31T01:19:31;7.60;;;4.70;;
8213;SDS011;4148;47.974;7.824;2023-03-31T01:22:18;8.67;;;4.43;;
8213;SDS011;4148;47.974;7.824;2023-03-31T01:25:05;9.03;;;4.67;;
8213;SDS011;4148;47.974;7.824;2023-03-31T01:28:10;7.67;;;5.03;;
8213;SDS011;4148;47.974;7.824;2023-03-31T01:33:57;8.63;;;4.80;;
8213;SDS011;4148;47.974;7.824;2023-03-31T01:37:12;7.13;;;4.23;;
8213;SDS011;4148;47.974;7.824;2023-03-31T01:40:08;7.83;;;4.57;;
8213;SDS011;4148;47.974;7.824;2023-03-31T01:43:06;8.33;;;4.97;;
8213;SDS011;4148;47.974;7.824;2023-03-31T01:45:43;8.13;;;5.13;;
8213;SDS011;4148;47.974;7.824;2023-03-31T01:48:23;6.70;;;4.50;;
8213;SDS011;4148;47.974;7.824;2023-03-31T01:51:00;13.23;;;6.50;;
8213;SDS011;4148;47.974;7.824;2023-03-31T01:53:32;13.47;;;7.40;;
8213;SDS011;4148;47.974;7.824;2023-03-31T01:56:06;10.50;;;5.57;;
8213;SDS011;4148;47.974;7.824;2023-03-31T01:58:40;10.47;;;4.87;;
8213;SDS011;4148;47.974;7.824;2023-03-31T02:01:13;8.37;;;4.90;;
8213;SDS011;4148;47.974;7.824;2023-03-31T02:03:45;8.57;;;4.57;;
8213;SDS011;4148;47.974;7.824;2023-03-31T02:06:18;6.73;;;5.03;;
8213;SDS011;4148;47.974;7.824;2023-03-31T02:08:50;9.77;;;4.80;;
8213;SDS011;4148;47.974;7.824;2023-03-31T02:11:24;8.20;;;4.90;;
8213;SDS011;4148;47.974;7.824;2023-03-31T02:13:55;6.70;;;4.93;;
8213;SDS011;4148;47.974;7.824;2023-03-31T02:16:27;9.50;;;4.93;;
8213;SDS011;4148;47.974;7.824;2023-03-31T02:18:58;8.23;;;4.60;;
8213;SDS011;4148;47.974;7.824;2023-03-31T02:21:30;9.63;;;5.13;;
8213;SDS011;4148;47.974;7.824;2023-03-31T02:24:01;9.47;;;5.00;;
8213;SDS011;4148;47.974;7.824;2023-03-31T02:26:34;8.37;;;4.80;;
8213;SDS011;4148;47.974;7.824;2023-03-31T02:29:06;9.53;;;5.17;;
8213;SDS011;4148;47.974;7.824;2023-03-31T02:31:35;7.40;;;4.80;;
8213;SDS011;4148;47.974;7.824;2023-03-31T02:34:10;9.20;;;4.93;;
8213;SDS011;4148;47.974;7.824;2023-03-31T02:36:38;13.40;;;5.00;;
8213;SDS011;4148;47.974;7.824;2023-03-31T02:39:07;7.87;;;5.00;;
8213;SDS011;4148;47.974;7.824;2023-03-31T02:41:39;7.67;;;5.00;;
8213;SDS011;4148;47.974;7.824;2023-03-31T02:44:08;7.60;;;4.27;;
8213;SDS011;4148;47.974;7.824;2023-03-31T02:46:36;7.73;;;4.57;;
8213;SDS011;4148;47.974;7.824;2023-03-31T02:49:05;11.43;;;5.20;;
8213;SDS011;4148;47.974;7.824;2023-03-31T02:51:41;8.00;;;4.20;;
8213;SDS011;4148;47.974;7.824;2023-03-31T02:54:26;9.33;;;5.43;;
8213;SDS011;4148;47.974;7.824;2023-03-31T02:57:10;11.13;;;4.90;;
8213;SDS011;4148;47.974;7.824;2023-03-31T02:59:48;7.67;;;4.73;;
8213;SDS011;4148;47.974;7.824;2023-03-31T03:02:29;8.10;;;4.77;;
8213;SDS011;4148;47.974;7.824;2023-03-31T03:05:07;8.00;;;4.90;;
8213;SDS011;4148;47.974;7.824;2023-03-31T03:07:46;6.53;;;4.83;;
8213;SDS011;4148;47.974;7.824;2023-03-31T03:10:25;7.63;;;5.00;;
8213;SDS011;4148;47.974;7.824;2023-03-31T03:13:00;12.37;;;5.60;;
8213;SDS011;4148;47.974;7.824;2023-03-31T03:15:36;9.90;;;5.70;;
8213;SDS011;4148;47.974;7.824;2023-03-31T03:18:08;7.37;;;4.63;;
8213;SDS011;4148;47.974;7.824;2023-03-31T03:20:36;10.87;;;5.20;;
8213;SDS011;4148;47.974;7.824;2023-03-31T03:23:04;9.40;;;4.80;;
8213;SDS011;4148;47.974;7.824;2023-03-31T03:25:32;9.57;;;5.30;;
8213;SDS011;4148;47.974;7.824;2023-03-31T03:28:01;12.03;;;5.07;;
8213;SDS011;4148;47.974;7.824;2023-03-31T03:30:29;7.70;;;5.03;;
8213;SDS011;4148;47.974;7.824;2023-03-31T03:32:57;10.93;;;6.30;;
8213;SDS011;4148;47.974;7.824;2023-03-31T03:35:25;6.17;;;4.73;;
8213;SDS011;4148;47.974;7.824;2023-03-31T03:37:53;10.53;;;6.00;;
8213;SDS011;4148;47.974;7.824;2023-03-31T03:40:20;8.93;;;4.80;;
8213;SDS011;4148;47.974;7.824;2023-03-31T03:42:48;8.00;;;5.57;;
8213;SDS011;4148;47.974;7.824;2023-03-31T03:45:17;8.63;;;6.07;;
8213;SDS011;4148;47.974;7.824;2023-03-31T03:47:45;8.80;;;5.40;;
8213;SDS011;4148;47.974;7.824;2023-03-31T03:50:13;9.30;;;5.20;;
8213;SDS011;4148;47.974;7.824;2023-03-31T03:52:41;10.70;;;5.83;;
8213;SDS011;4148;47.974;7.824;2023-03-31T03:55:09;9.70;;;5.50;;
8213;SDS011;4148;47.974;7.824;2023-03-31T03:57:39;9.17;;;6.57;;
8213;SDS011;4148;47.974;7.824;2023-03-31T04:00:07;9.87;;;4.77;;
8213;SDS011;4148;47.974;7.824;2023-03-31T04:02:39;8.00;;;4.73;;
8213;SDS011;4148;47.974;7.824;2023-03-31T04:05:07;5.67;;;3.83;;
8213;SDS011;4148;47.974;7.824;2023-03-31T04:07:35;5.67;;;4.40;;
8213;SDS011;4148;47.974;7.824;2023-03-31T04:10:04;9.30;;;5.00;;
8213;SDS011;4148;47.974;7.824;2023-03-31T04:12:32;7.83;;;4.73;;
8213;SDS011;4148;47.974;7.824;2023-03-31T04:15:01;10.50;;;5.50;;
8213;SDS011;4148;47.974;7.824;2023-03-31T04:17:29;8.30;;;4.83;;
8213;SDS011;4148;47.974;7.824;2023-03-31T04:20:01;8.60;;;5.27;;
8213;SDS011;4148;47.974;7.824;2023-03-31T04:22:34;8.77;;;5.40;;
8213;SDS011;4148;47.974;7.824;2023-03-31T04:25:07;8.60;;;4.83;;
8213;SDS011;4148;47.974;7.824;2023-03-31T04:27:41;5.43;;;4.27;;
8213;SDS011;4148;47.974;7.824;2023-03-31T04:30:12;7.90;;;4.73;;
8213;SDS011;4148;47.974;7.824;2023-03-31T04:32:48;7.27;;;5.07;;
8213;SDS011;4148;47.974;7.824;2023-03-31T04:35:20;7.70;;;4.30;;
8213;SDS011;4148;47.974;7.824;2023-03-31T04:37:50;9.13;;;4.93;;
8213;SDS011;4148;47.974;7.824;2023-03-31T04:40:23;6.00;;;4.30;;
8213;SDS011;4148;47.974;7.824;2023-03-31T04:42:51;8.37;;;3.80;;
8213;SDS011;4148;47.974;7.824;2023-03-31T04:45:19;7.63;;;4.60;;
8213;SDS011;4148;47.974;7.824;2023-03-31T04:47:47;8.23;;;4.43;;
8213;SDS011;4148;47.974;7.824;2023-03-31T04:50:15;11.40;;;4.60;;
8213;SDS011;4148;47.974;7.824;2023-03-31T04:52:44;11.53;;;4.97;;
8213;SDS011;4148;47.974;7.824;2023-03-31T04:55:12;6.00;;;4.37;;
8213;SDS011;4148;47.974;7.824;2023-03-31T04:57:40;6.93;;;4.30;;
8213;SDS011;4148;47.974;7.824;2023-03-31T05:00:08;11.80;;;5.53;;
8213;SDS011;4148;47.974;7.824;2023-03-31T05:02:37;7.47;;;4.60;;
8213;SDS011;4148;47.974;7.824;2023-03-31T05:05:05;6.00;;;4.43;;
8213;SDS011;4148;47.974;7.824;2023-03-31T05:07:33;7.90;;;4.40;;
8213;SDS011;4148;47.974;7.824;2023-03-31T05:10:02;8.40;;;5.27;;
8213;SDS011;4148;47.974;7.824;2023-03-31T05:12:32;8.63;;;5.00;;
8213;SDS011;4148;47.974;7.824;2023-03-31T05:15:00;8.10;;;5.07;;
8213;SDS011;4148;47.974;7.824;2023-03-31T05:17:30;10.87;;;6.10;;
8213;SDS011;4148;47.974;7.824;2023-03-31T05:19:58;14.10;;;6.30;;
8213;SDS011;4148;47.974;7.824;2023-03-31T05:22:27;8.37;;;5.37;;
8213;SDS011;4148;47.974;7.824;2023-03-31T05:24:54;7.70;;;5.10;;
8213;SDS011;4148;47.974;7.824;2023-03-31T05:27:23;8.67;;;4.70;;
8213;SDS011;4148;47.974;7.824;2023-03-31T05:29:51;9.30;;;5.40;;
8213;SDS011;4148;47.974;7.824;2023-03-31T05:32:19;7.67;;;4.80;;
8213;SDS011;4148;47.974;7.824;2023-03-31T05:34:47;6.33;;;4.67;;
8213;SDS011;4148;47.974;7.824;2023-03-31T05:37:17;5.93;;;4.60;;
8213;SDS011;4148;47.974;7.824;2023-03-31T05:39:46;11.87;;;4.50;;
8213;SDS011;4148;47.974;7.824;2023-03-31T05:42:14;9.23;;;4.67;;
8213;SDS011;4148;47.974;7.824;2023-03-31T05:44:43;6.50;;;4.33;;
8213;SDS011;4148;47.974;7.824;2023-03-31T05:47:11;7.83;;;4.67;;
8213;SDS011;4148;47.974;7.824;2023-03-31T05:49:39;8.63;;;5.63;;
8213;SDS011;4148;47.974;7.824;2023-03-31T05:52:07;8.70;;;5.40;;
8213;SDS011;4148;47.974;7.824;2023-03-31T05:54:36;8.77;;;5.07;;
8213;SDS011;4148;47.974;7.824;2023-03-31T05:57:04;6.17;;;4.90;;
8213;SDS011;4148;47.974;7.824;2023-03-31T05:59:31;7.07;;;4.87;;
8213;SDS011;4148;47.974;7.824;2023-03-31T06:02:02;6.30;;;5.00;;
8213;SDS011;4148;47.974;7.824;2023-03-31T06:04:31;8.47;;;5.03;;
8213;SDS011;4148;47.974;7.824;2023-03-31T06:06:58;13.07;;;6.00;;
8213;SDS011;4148;47.974;7.824;2023-03-31T06:09:26;11.40;;;6.17;;
8213;SDS011;4148;47.974;7.824;2023-03-31T06:11:54;7.57;;;4.43;;
8213;SDS011;4148;47.974;7.824;2023-03-31T06:14:22;9.00;;;5.13;;
8213;SDS011;4148;47.974;7.824;2023-03-31T06:16:50;10.70;;;5.40;;
8213;SDS011;4148;47.974;7.824;2023-03-31T06:19:19;10.20;;;5.40;;
8213;SDS011;4148;47.974;7.824;2023-03-31T06:21:47;19.80;;;6.03;;
8213;SDS011;4148;47.974;7.824;2023-03-31T06:24:15;10.00;;;5.10;;
8213;SDS011;4148;47.974;7.824;2023-03-31T06:26:43;7.80;;;4.57;;
8213;SDS011;4148;47.974;7.824;2023-03-31T06:29:10;5.30;;;3.67;;
8213;SDS011;4148;47.974;7.824;2023-03-31T06:31:38;6.43;;;3.00;;
8213;SDS011;4148;47.974;7.824;2023-03-31T06:34:06;7.70;;;2.70;;
8213;SDS011;4148;47.974;7.824;2023-03-31T06:36:35;5.70;;;3.60;;
8213;SDS011;4148;47.974;7.824;2023-03-31T06:39:03;6.90;;;3.90;;
8213;SDS011;4148;47.974;7.824;2023-03-31T06:41:31;8.40;;;3.70;;
8213;SDS011;4148;47.974;7.824;2023-03-31T06:43:59;5.10;;;3.60;;
8213;SDS011;4148;47.974;7.824;2023-03-31T06:46:26;7.20;;;3.60;;
8213;SDS011;4148;47.974;7.824;2023-03-31T06:48:54;5.10;;;2.33;;
8213;SDS011;4148;47.974;7.824;2023-03-31T06:51:22;2.53;;;2.27;;
8213;SDS011;4148;47.974;7.824;2023-03-31T06:53:51;2.37;;;1.70;;
8213;SDS011;4148;47.974;7.824;2023-03-31T06:56:19;2.43;;;1.93;;
8213;SDS011;4148;47.974;7.824;2023-03-31T06:58:47;3.30;;;1.40;;
8213;SDS011;4148;47.974;7.824;2023-03-31T07:01:15;2.90;;;1.87;;
8213;SDS011;4148;47.974;7.824;2023-03-31T07:03:42;2.50;;;1.60;;
8213;SDS011;4148;47.974;7.824;2023-03-31T07:06:10;4.40;;;1.90;;
8213;SDS011;4148;47.974;7.824;2023-03-31T07:08:38;2.50;;;1.73;;
8213;SDS011;4148;47.974;7.824;2023-03-31T07:11:07;3.07;;;1.83;;
8213;SDS011;4148;47.974;7.824;2023-03-31T07:13:36;4.97;;;1.73;;
8213;SDS011;4148;47.974;7.824;2023-03-31T07:16:04;2.67;;;1.60;;
8213;SDS011;4148;47.974;7.824;2023-03-31T07:18:33;1.60;;;1.40;;
8213;SDS011;4148;47.974;7.824;2023-03-31T07:21:02;2.57;;;1.40;;
8213;SDS011;4148;47.974;7.824;2023-03-31T07:23:35;2.03;;;1.20;;
8213;SDS011;4148;47.974;7.824;2023-03-31T07:26:03;2.93;;;1.63;;
8213;SDS011;4148;47.974;7.824;2023-03-31T07:28:33;5.00;;;1.40;;
8213;SDS011;4148;47.974;7.824;2023-03-31T07:31:01;1.90;;;1.40;;
8213;SDS011;4148;47.974;7.824;2023-03-31T07:33:30;2.10;;;1.50;;
8213;SDS011;4148;47.974;7.824;2023-03-31T07:35:57;6.93;;;1.80;;
8213;SDS011;4148;47.974;7.824;2023-03-31T07:38:38;2.53;;;1.60;;
8213;SDS011;4148;47.974;7.824;2023-03-31T07:41:08;2.70;;;1.30;;
8213;SDS011;4148;47.974;7.824;2023-03-31T07:43:38;3.20;;;1.40;;
8213;SDS011;4148;47.974;7.824;2023-03-31T07:46:12;3.53;;;1.67;;
8213;SDS011;4148;47.974;7.824;2023-03-31T07:48:41;5.27;;;1.67;;
8213;SDS011;4148;47.974;7.824;2023-03-31T07:51:11;2.57;;;1.50;;
8213;SDS011;4148;47.974;7.824;2023-03-31T07:53:39;3.23;;;1.80;;
8213;SDS011;4148;47.974;7.824;2023-03-31T07:56:07;2.97;;;1.77;;
8213;SDS011;4148;47.974;7.824;2023-03-31T07:58:35;4.40;;;1.70;;
8213;SDS011;4148;47.974;7.824;2023-03-31T08:01:04;3.37;;;1.70;;
8213;SDS011;4148;47.974;7.824;2023-03-31T08:03:33;2.73;;;2.03;;
8213;SDS011;4148;47.974;7.824;2023-03-31T08:06:01;2.70;;;1.70;;
8213;SDS011;4148;47.974;7.824;2023-03-31T08:08:30;4.27;;;2.33;;
8213;SDS011;4148;47.974;7.824;2023-03-31T08:10:58;3.40;;;1.83;;
8213;SDS011;4148;47.974;7.824;2023-03-31T08:13:26;4.27;;;2.03;;
8213;SDS011;4148;47.974;7.824;2023-03-31T08:15:54;4.00;;;1.87;;
8213;SDS011;4148;47.974;7.824;2023-03-31T08:18:23;2.60;;;1.60;;
8213;SDS011;4148;47.974;7.824;2023-03-31T08:20:51;3.83;;;1.70;;
8213;SDS011;4148;47.974;7.824;2023-03-31T08:23:19;2.63;;;1.93;;
8213;SDS011;4148;47.974;7.824;2023-03-31T08:25:47;3.40;;;1.90;;
8213;SDS011;4148;47.974;7.824;2023-03-31T08:28:15;5.57;;;2.10;;
8213;SDS011;4148;47.974;7.824;2023-03-31T08:30:43;4.00;;;1.87;;
8213;SDS011;4148;47.974;7.824;2023-03-31T08:33:11;3.87;;;2.00;;
8213;SDS011;4148;47.974;7.824;2023-03-31T08:35:40;3.60;;;1.70;;
8213;SDS011;4148;47.974;7.824;2023-03-31T08:38:08;5.50;;;2.30;;
8213;SDS011;4148;47.974;7.824;2023-03-31T08:40:36;5.50;;;2.40;;
8213;SDS011;4148;47.974;7.824;2023-03-31T08:43:10;5.07;;;2.60;;
8213;SDS011;4148;47.974;7.824;2023-03-31T08:45:44;5.57;;;1.90;;
8213;SDS011;4148;47.974;7.824;2023-03-31T08:48:16;4.30;;;2.57;;
8213;SDS011;4148;47.974;7.824;2023-03-31T08:50:53;8.30;;;1.97;;
8213;SDS011;4148;47.974;7.824;2023-03-31T08:53:25;7.90;;;2.33;;
8213;SDS011;4148;47.974;7.824;2023-03-31T08:55:55;6.80;;;2.07;;
8213;SDS011;4148;47.974;7.824;2023-03-31T08:58:27;4.00;;;2.10;;
8213;SDS011;4148;47.974;7.824;2023-03-31T09:01:06;4.77;;;1.90;;
8213;SDS011;4148;47.974;7.824;2023-03-31T09:03:43;3.33;;;2.00;;
8213;SDS011;4148;47.974;7.824;2023-03-31T09:06:22;11.00;;;2.40;;
8213;SDS011;4148;47.974;7.824;2023-03-31T09:09:00;4.60;;;2.10;;
8213;SDS011;4148;47.974;7.824;2023-03-31T09:11:30;4.40;;;1.60;;
8213;SDS011;4148;47.974;7.824;2023-03-31T09:14:12;3.07;;;1.67;;
8213;SDS011;4148;47.974;7.824;2023-03-31T09:16:53;4.87;;;1.50;;
8213;SDS011;4148;47.974;7.824;2023-03-31T09:19:29;5.90;;;1.90;;
8213;SDS011;4148;47.974;7.824;2023-03-31T09:22:03;3.30;;;1.43;;
8213;SDS011;4148;47.974;7.824;2023-03-31T09:24:39;3.47;;;1.40;;
8213;SDS011;4148;47.974;7.824;2023-03-31T09:27:17;5.13;;;1.70;;
8213;SDS011;4148;47.974;7.824;2023-03-31T09:29:47;6.70;;;1.90;;
8213;SDS011;4148;47.974;7.824;2023-03-31T09:32:19;2.30;;;1.50;;
8213;SDS011;4148;47.974;7.824;2023-03-31T09:34:49;3.33;;;1.60;;
8213;SDS011;4148;47.974;7.824;2023-03-31T09:37:20;6.60;;;1.50;;
8213;SDS011;4148;47.974;7.824;2023-03-31T09:39:48;4.43;;;1.67;;
8213;SDS011;4148;47.974;7.824;2023-03-31T09:42:16;7.07;;;1.70;;
8213;SDS011;4148;47.974;7.824;2023-03-31T09:44:45;2.47;;;1.60;;
8213;SDS011;4148;47.974;7.824;2023-03-31T09:47:17;5.60;;;1.60;;
8213;SDS011;4148;47.974;7.824;2023-03-31T09:49:52;4.83;;;1.50;;
8213;SDS011;4148;47.974;7.824;2023-03-31T09:52:24;6.70;;;2.00;;
8213;SDS011;4148;47.974;7.824;2023-03-31T09:54:57;5.60;;;1.77;;
8213;SDS011;4148;47.974;7.824;2023-03-31T09:57:27;6.60;;;1.83;;
8213;SDS011;4148;47.974;7.824;2023-03-31T10:00:03;5.27;;;1.97;;
8213;SDS011;4148;47.974;7.824;2023-03-31T10:02:40;6.73;;;1.80;;
8213;SDS011;4148;47.974;7.824;2023-03-31T10:05:18;5.00;;;1.53;;
8213;SDS011;4148;47.974;7.824;2023-03-31T10:08:08;9.60;;;2.43;;
8213;SDS011;4148;47.974;7.824;2023-03-31T10:10:51;6.20;;;1.80;;
8213;SDS011;4148;47.974;7.824;2023-03-31T10:13:22;6.80;;;1.97;;
8213;SDS011;4148;47.974;7.824;2023-03-31T10:15:52;5.47;;;2.03;;
8213;SDS011;4148;47.974;7.824;2023-03-31T10:18:20;5.10;;;1.97;;
8213;SDS011;4148;47.974;7.824;2023-03-31T10:20:59;8.43;;;2.17;;
8213;SDS011;4148;47.974;7.824;2023-03-31T10:23:32;7.07;;;2.17;;
8213;SDS011;4148;47.974;7.824;2023-03-31T10:26:01;6.40;;;2.27;;
8213;SDS011;4148;47.974;7.824;2023-03-31T10:28:31;5.30;;;1.50;;
8213;SDS011;4148;47.974;7.824;2023-03-31T10:31:00;4.70;;;1.50;;
8213;SDS011;4148;47.974;7.824;2023-03-31T10:33:30;4.53;;;1.60;;
8213;SDS011;4148;47.974;7.824;2023-03-31T10:36:00;6.03;;;1.50;;
8213;SDS011;4148;47.974;7.824;2023-03-31T10:38:35;4.70;;;2.10;;
8213;SDS011;4148;47.974;7.824;2023-03-31T10:41:06;3.57;;;1.50;;
8213;SDS011;4148;47.974;7.824;2023-03-31T10:43:36;9.57;;;1.90;;
8213;SDS011;4148;47.974;7.824;2023-03-31T10:46:06;5.23;;;2.13;;
8213;SDS011;4148;47.974;7.824;2023-03-31T10:48:35;10.13;;;1.90;;
8213;SDS011;4148;47.974;7.824;2023-03-31T10:51:09;9.40;;;2.00;;
8213;SDS011;4148;47.974;7.824;2023-03-31T10:53:43;6.90;;;1.60;;
8213;SDS011;4148;47.974;7.824;2023-03-31T10:56:21;4.37;;;1.70;;
8213;SDS011;4148;47.974;7.824;2023-03-31T10:59:04;5.90;;;2.00;;
8213;SDS011;4148;47.974;7.824;2023-03-31T11:01:56;6.10;;;2.00;;
8213;SDS011;4148;47.974;7.824;2023-03-31T11:04:43;5.93;;;1.87;;
8213;SDS011;4148;47.974;7.824;2023-03-31T11:07:22;11.13;;;2.27;;
8213;SDS011;4148;47.974;7.824;2023-03-31T11:10:09;7.20;;;1.60;;
8213;SDS011;4148;47.974;7.824;2023-03-31T11:12:52;6.10;;;2.13;;
8213;SDS011;4148;47.974;7.824;2023-03-31T11:15:29;5.37;;;1.90;;
8213;SDS011;4148;47.974;7.824;2023-03-31T11:18:10;8.10;;;2.00;;
8213;SDS011;4148;47.974;7.824;2023-03-31T11:20:54;5.53;;;1.87;;
8213;SDS011;4148;47.974;7.824;2023-03-31T11:23:31;3.70;;;1.50;;
8213;SDS011;4148;47.974;7.824;2023-03-31T11:26:09;7.20;;;1.67;;
8213;SDS011;4148;47.974;7.824;2023-03-31T11:28:56;4.67;;;1.60;;
8213;SDS011;4148;47.974;7.824;2023-03-31T11:31:32;5.70;;;1.47;;
8213;SDS011;4148;47.974;7.824;2023-03-31T11:34:08;4.00;;;1.60;;
8213;SDS011;4148;47.974;7.824;2023-03-31T11:36:53;3.50;;;1.50;;
8213;SDS011;4148;47.974;7.824;2023-03-31T11:39:46;3.90;;;1.20;;
8213;SDS011;4148;47.974;7.824;2023-03-31T11:42:31;3.60;;;1.30;;
8213;SDS011;4148;47.974;7.824;2023-03-31T11:45:04;3.90;;;1.40;;
8213;SDS011;4148;47.974;7.824;2023-03-31T11:47:41;4.20;;;1.80;;
8213;SDS011;4148;47.974;7.824;2023-03-31T11:50:13;3.53;;;1.43;;
8213;SDS011;4148;47.974;7.824;2023-03-31T11:52:46;3.53;;;1.20;;
8213;SDS011;4148;47.974;7.824;2023-03-31T11:55:20;2.60;;;1.00;;
8213;SDS011;4148;47.974;7.824;2023-03-31T11:57:56;2.17;;;1.10;;
8213;SDS011;4148;47.974;7.824;2023-03-31T12:00:29;1.50;;;0.80;;
8213;SDS011;4148;47.974;7.824;2023-03-31T12:03:00;2.00;;;0.90;;
8213;SDS011;4148;47.974;7.824;2023-03-31T12:05:36;1.73;;;0.80;;
8213;SDS011;4148;47.974;7.824;2023-03-31T12:08:10;3.43;;;1.63;;
8213;SDS011;4148;47.974;7.824;2023-03-31T12:10:43;2.40;;;0.87;;
8213;SDS011;4148;47.974;7.824;2023-03-31T12:13:25;2.60;;;0.90;;
8213;SDS011;4148;47.974;7.824;2023-03-31T12:16:03;2.33;;;0.90;;
8213;SDS011;4148;47.974;7.824;2023-03-31T12:18:36;3.83;;;1.27;;
8213;SDS011;4148;47.974;7.824;2023-03-31T12:21:08;1.90;;;0.90;;
8213;SDS011;4148;47.974;7.824;2023-03-31T12:23:38;2.03;;;1.10;;
8213;SDS011;4148;47.974;7.824;2023-03-31T12:26:13;2.67;;;1.10;;
8213;SDS011;4148;47.974;7.824;2023-03-31T12:28:50;2.10;;;0.93;;
8213;SDS011;4148;47.974;7.824;2023-03-31T12:31:24;3.13;;;1.10;;
8213;SDS011;4148;47.974;7.824;2023-03-31T12:33:54;2.83;;;1.30;;
8213;SDS011;4148;47.974;7.824;2023-03-31T12:36:29;3.03;;;1.30;;
8213;SDS011;4148;47.974;7.824;2023-03-31T12:39:15;4.90;;;1.30;;
8213;SDS011;4148;47.974;7.824;2023-03-31T12:41:55;2.07;;;0.93;;
8213;SDS011;4148;47.974;7.824;2023-03-31T12:44:37;3.23;;;1.30;;
8213;SDS011;4148;47.974;7.824;2023-03-31T12:47:28;3.47;;;1.13;;
8213;SDS011;4148;47.974;7.824;2023-03-31T12:50:29;3.13;;;1.20;;
8213;SDS011;4148;47.974;7.824;2023-03-31T12:53:08;4.27;;;1.40;;
8213;SDS011;4148;47.974;7.824;2023-03-31T12:55:44;3.03;;;1.10;;
8213;SDS011;4148;47.974;7.824;2023-03-31T13:01:17;3.27;;;1.30;;
8213;SDS011;4148;47.974;7.824;2023-03-31T13:03:48;6.30;;;1.13;;
8213;SDS011;4148;47.974;7.824;2023-03-31T13:09:45;9.83;;;2.83;;
8213;SDS011;4148;47.974;7.824;2023-03-31T13:12:18;5.03;;;2.90;;
8213;SDS011;4148;47.974;7.824;2023-03-31T13:14:49;5.30;;;1.70;;
8213;SDS011;4148;47.974;7.824;2023-03-31T13:17:21;5.07;;;2.80;;
8213;SDS011;4148;47.974;7.824;2023-03-31T13:19:51;5.73;;;2.00;;
8213;SDS011;4148;47.974;7.824;2023-03-31T13:22:27;11.40;;;2.00;;
8213;SDS011;4148;47.974;7.824;2023-03-31T13:28:07;7.00;;;2.10;;
8213;SDS011;4148;47.974;7.824;2023-03-31T13:30:44;6.60;;;2.20;;
8213;SDS011;4148;47.974;7.824;2023-03-31T13:33:25;6.00;;;1.50;;
8213;SDS011;4148;47.974;7.824;2023-03-31T13:36:12;4.13;;;1.40;;
8213;SDS011;4148;47.974;7.824;2023-03-31T13:39:10;24.37;;;2.77;;
8213;SDS011;4148;47.974;7.824;2023-03-31T13:41:59;4.33;;;1.50;;
8213;SDS011;4148;47.974;7.824;2023-03-31T13:44:54;2.67;;;1.30;;
8213;SDS011;4148;47.974;7.824;2023-03-31T13:47:48;3.73;;;1.00;;
8213;SDS011;4148;47.974;7.824;2023-03-31T13:50:38;5.10;;;1.70;;
8213;SDS011;4148;47.974;7.824;2023-03-31T13:53:18;3.30;;;1.03;;
8213;SDS011;4148;47.974;7.824;2023-03-31T13:56:12;3.30;;;1.40;;
8213;SDS011;4148;47.974;7.824;2023-03-31T14:01:57;3.77;;;0.97;;
8213;SDS011;4148;47.974;7.824;2023-03-31T14:07:36;2.43;;;0.90;;
8213;SDS011;4148;47.974;7.824;2023-03-31T14:10:20;3.77;;;1.17;;
8213;SDS011;4148;47.974;7.824;2023-03-31T14:12:50;2.70;;;0.90;;
8213;SDS011;4148;47.974;7.824;2023-03-31T14:15:18;1.63;;;0.80;;
8213;SDS011;4148;47.974;7.824;2023-03-31T14:17:47;2.80;;;1.00;;
8213;SDS011;4148;47.974;7.824;2023-03-31T14:20:24;2.80;;;0.87;;
8213;SDS011;4148;47.974;7.824;2023-03-31T14:23:01;1.60;;;0.90;;
8213;SDS011;4148;47.974;7.824;2023-03-31T14:25:43;6.73;;;0.97;;
8213;SDS011;4148;47.974;7.824;2023-03-31T14:28:23;2.50;;;1.20;;
8213;SDS011;4148;47.974;7.824;2023-03-31T14:31:04;4.23;;;2.40;;
8213;SDS011;4148;47.974;7.824;2023-03-31T14:33:47;2.03;;;0.97;;
8213;SDS011;4148;47.974;7.824;2023-03-31T14:36:27;5.23;;;1.10;;
8213;SDS011;4148;47.974;7.824;2023-03-31T14:39:05;4.47;;;1.20;;
8213;SDS011;4148;47.974;7.824;2023-03-31T14:41:36;4.00;;;1.20;;
8213;SDS011;4148;47.974;7.824;2023-03-31T14:44:05;2.13;;;1.00;;
8213;SDS011;4148;47.974;7.824;2023-03-31T14:46:35;3.30;;;0.83;;
8213;SDS011;4148;47.974;7.824;2023-03-31T14:49:05;1.67;;;0.90;;
8213;SDS011;4148;47.974;7.824;2023-03-31T14:51:41;3.37;;;0.97;;
8213;SDS011;4148;47.974;7.824;2023-03-31T14:54:14;3.20;;;1.00;;
8213;SDS011;4148;47.974;7.824;2023-03-31T14:56:44;3.00;;;0.90;;
8213;SDS011;4148;47.974;7.824;2023-03-31T14:59:15;1.70;;;0.73;;
8213;SDS011;4148;47.974;7.824;2023-03-31T15:01:46;2.97;;;1.00;;
8213;SDS011;4148;47.974;7.824;2023-03-31T15:04:16;6.03;;;1.57;;
8213;SDS011;4148;47.974;7.824;2023-03-31T15:07:04;2.77;;;1.40;;
8213;SDS011;4148;47.974;7.824;2023-03-31T15:09:35;5.53;;;1.10;;
8213;SDS011;4148;47.974;7.824;2023-03-31T15:12:03;5.60;;;1.10;;
8213;SDS011;4148;47.974;7.824;2023-03-31T15:14:38;4.30;;;1.50;;
8213;SDS011;4148;47.974;7.824;2023-03-31T15:17:15;5.70;;;1.70;;
8213;SDS011;4148;47.974;7.824;2023-03-31T15:19:51;3.07;;;1.40;;
8213;SDS011;4148;47.974;7.824;2023-03-31T15:22:21;4.40;;;1.00;;
8213;SDS011;4148;47.974;7.824;2023-03-31T15:24:52;5.97;;;1.13;;
8213;SDS011;4148;47.974;7.824;2023-03-31T15:27:24;1.77;;;1.10;;
8213;SDS011;4148;47.974;7.824;2023-03-31T15:30:03;3.00;;;1.70;;
8213;SDS011;4148;47.974;7.824;2023-03-31T15:32:33;3.37;;;1.63;;
8213;SDS011;4148;47.974;7.824;2023-03-31T15:35:03;2.87;;;1.30;;
8213;SDS011;4148;47.974;7.824;2023-03-31T15:37:48;18.43;;;1.60;;
8213;SDS011;4148;47.974;7.824;2023-03-31T15:40:19;5.73;;;1.70;;
8213;SDS011;4148;47.974;7.824;2023-03-31T15:42:51;5.83;;;1.10;;
8213;SDS011;4148;47.974;7.824;2023-03-31T15:45:49;3.90;;;1.10;;
8213;SDS011;4148;47.974;7.824;2023-03-31T15:48:21;3.70;;;1.10;;
8213;SDS011;4148;47.974;7.824;2023-03-31T15:50:57;2.73;;;1.00;;
8213;SDS011;4148;47.974;7.824;2023-03-31T15:53:27;1.70;;;0.80;;
8213;SDS011;4148;47.974;7.824;2023-03-31T15:55:58;2.43;;;1.17;;
8213;SDS011;4148;47.974;7.824;2023-03-31T16:01:26;2.43;;;1.50;;
8213;SDS011;4148;47.974;7.824;2023-03-31T16:03:58;3.73;;;1.80;;
8213;SDS011;4148;47.974;7.824;2023-03-31T16:06:38;4.07;;;1.10;;
8213;SDS011;4148;47.974;7.824;2023-03-31T16:09:10;3.83;;;1.13;;
8213;SDS011;4148;47.974;7.824;2023-03-31T16:11:44;2.07;;;1.20;;
8213;SDS011;4148;47.974;7.824;2023-03-31T16:14:15;3.60;;;1.23;;